sensor_id;sensor_type;location;lat;lon;timestamp;P1;durP1;ratioP1;P2;durP2;ratioP2
70335;SDS011;57756;47.408;18.940;2023-07-16T00:01:57;0.80;;;0.50;;
70335;SDS011;57756;47.408;18.940;2023-07-16T00:04:23;1.00;;;0.50;;
70335;SDS011;57756;47.408;18.940;2023-07-16T00:06:49;1.75;;;0.93;;
70335;SDS011;57756;47.408;18.940;2023-07-16T00:09:15;1.00;;;0.57;;
70335;SDS011;57756;47.408;18.940;2023-07-16T00:11:40;0.80;;;0.55;;
70335;SDS011;57756;47.408;18.940;2023-07-16T00:14:06;0.80;;;0.43;;
70335;SDS011;57756;47.408;18.940;2023-07-16T00:16:32;0.70;;;0.43;;
70335;SDS011;57756;47.408;18.940;2023-07-16T00:18:57;1.43;;;0.20;;
70335;SDS011;57756;47.408;18.940;2023-07-16T00:21:23;0.90;;;0.50;;
70335;SDS011;57756;47.408;18.940;2023-07-16T00:23:49;1.27;;;0.60;;
70335;SDS011;57756;47.408;18.940;2023-07-16T00:26:14;1.27;;;1.00;;
70335;SDS011;57756;47.408;18.940;2023-07-16T00:28:40;1.27;;;0.73;;
70335;SDS011;57756;47.408;18.940;2023-07-16T00:31:05;0.67;;;0.27;;
70335;SDS011;57756;47.408;18.940;2023-07-16T00:33:31;0.70;;;0.30;;
70335;SDS011;57756;47.408;18.940;2023-07-16T00:35:56;1.33;;;0.73;;
70335;SDS011;57756;47.408;18.940;2023-07-16T00:38:22;0.70;;;0.30;;
70335;SDS011;57756;47.408;18.940;2023-07-16T00:40:47;1.35;;;0.85;;
70335;SDS011;57756;47.408;18.940;2023-07-16T00:43:13;1.20;;;0.60;;
70335;SDS011;57756;47.408;18.940;2023-07-16T00:45:39;0.63;;;0.32;;
70335;SDS011;57756;47.408;18.940;2023-07-16T00:48:06;1.00;;;0.80;;
70335;SDS011;57756;47.408;18.940;2023-07-16T00:50:33;0.90;;;0.70;;
70335;SDS011;57756;47.408;18.940;2023-07-16T00:53:05;0.70;;;0.30;;
70335;SDS011;57756;47.408;18.940;2023-07-16T00:55:31;1.17;;;0.60;;
70335;SDS011;57756;47.408;18.940;2023-07-16T00:58:01;1.00;;;0.85;;
70335;SDS011;57756;47.408;18.940;2023-07-16T01:00:30;0.95;;;0.45;;
70335;SDS011;57756;47.408;18.940;2023-07-16T01:03:00;0.55;;;0.20;;
70335;SDS011;57756;47.408;18.940;2023-07-16T01:05:38;1.83;;;0.93;;
70335;SDS011;57756;47.408;18.940;2023-07-16T01:08:10;0.70;;;0.22;;
70335;SDS011;57756;47.408;18.940;2023-07-16T01:10:40;1.48;;;0.93;;
70335;SDS011;57756;47.408;18.940;2023-07-16T01:13:06;0.77;;;0.50;;
70335;SDS011;57756;47.408;18.940;2023-07-16T01:15:32;1.07;;;0.63;;
70335;SDS011;57756;47.408;18.940;2023-07-16T01:17:57;1.05;;;0.70;;
70335;SDS011;57756;47.408;18.940;2023-07-16T01:20:23;1.03;;;0.53;;
70335;SDS011;57756;47.408;18.940;2023-07-16T01:23:08;0.93;;;0.50;;
70335;SDS011;57756;47.408;18.940;2023-07-16T01:31:29;1.48;;;1.13;;
70335;SDS011;57756;47.408;18.940;2023-07-16T01:33:54;1.38;;;0.60;;
70335;SDS011;57756;47.408;18.940;2023-07-16T01:36:21;0.90;;;0.40;;
70335;SDS011;57756;47.408;18.940;2023-07-16T01:38:49;0.80;;;0.50;;
70335;SDS011;57756;47.408;18.940;2023-07-16T01:41:15;2.38;;;1.05;;
70335;SDS011;57756;47.408;18.940;2023-07-16T01:43:40;1.00;;;0.70;;
70335;SDS011;57756;47.408;18.940;2023-07-16T01:46:06;1.00;;;0.57;;
70335;SDS011;57756;47.408;18.940;2023-07-16T01:50:58;0.98;;;0.50;;
70335;SDS011;57756;47.408;18.940;2023-07-16T01:53:23;0.90;;;0.60;;
70335;SDS011;57756;47.408;18.940;2023-07-16T01:55:49;0.90;;;0.60;;
70335;SDS011;57756;47.408;18.940;2023-07-16T01:58:14;1.67;;;0.95;;
70335;SDS011;57756;47.408;18.940;2023-07-16T02:00:40;0.63;;;0.37;;
70335;SDS011;57756;47.408;18.940;2023-07-16T02:03:06;2.70;;;1.58;;
70335;SDS011;57756;47.408;18.940;2023-07-16T02:05:31;0.70;;;0.40;;
70335;SDS011;57756;47.408;18.940;2023-07-16T02:07:57;0.98;;;0.60;;
70335;SDS011;57756;47.408;18.940;2023-07-16T02:10:22;1.63;;;0.87;;
70335;SDS011;57756;47.408;18.940;2023-07-16T02:12:48;1.43;;;0.90;;
70335;SDS011;57756;47.408;18.940;2023-07-16T02:15:13;0.95;;;0.60;;
70335;SDS011;57756;47.408;18.940;2023-07-16T02:17:39;1.40;;;0.90;;
70335;SDS011;57756;47.408;18.940;2023-07-16T02:20:05;0.95;;;0.60;;
70335;SDS011;57756;47.408;18.940;2023-07-16T02:22:31;0.57;;;0.20;;
70335;SDS011;57756;47.408;18.940;2023-07-16T02:24:57;1.42;;;1.00;;
70335;SDS011;57756;47.408;18.940;2023-07-16T02:27:22;1.30;;;0.77;;
70335;SDS011;57756;47.408;18.940;2023-07-16T02:29:48;0.40;;;0.20;;
70335;SDS011;57756;47.408;18.940;2023-07-16T02:32:13;1.00;;;0.80;;
70335;SDS011;57756;47.408;18.940;2023-07-16T02:34:39;1.17;;;0.57;;
70335;SDS011;57756;47.408;18.940;2023-07-16T02:37:05;1.70;;;0.95;;
70335;SDS011;57756;47.408;18.940;2023-07-16T02:39:30;1.10;;;0.40;;
70335;SDS011;57756;47.408;18.940;2023-07-16T02:41:56;1.10;;;0.93;;
70335;SDS011;57756;47.408;18.940;2023-07-16T02:44:21;0.77;;;0.53;;
70335;SDS011;57756;47.408;18.940;2023-07-16T02:46:47;1.37;;;0.70;;
70335;SDS011;57756;47.408;18.940;2023-07-16T02:49:12;1.03;;;0.53;;
70335;SDS011;57756;47.408;18.940;2023-07-16T02:51:38;1.60;;;1.33;;
70335;SDS011;57756;47.408;18.940;2023-07-16T02:54:03;1.38;;;0.98;;
70335;SDS011;57756;47.408;18.940;2023-07-16T02:56:29;0.80;;;0.40;;
70335;SDS011;57756;47.408;18.940;2023-07-16T02:58:54;0.53;;;0.30;;
70335;SDS011;57756;47.408;18.940;2023-07-16T03:01:20;1.15;;;0.60;;
70335;SDS011;57756;47.408;18.940;2023-07-16T03:03:45;0.80;;;0.53;;
70335;SDS011;57756;47.408;18.940;2023-07-16T03:06:11;1.37;;;1.20;;
70335;SDS011;57756;47.408;18.940;2023-07-16T03:08:36;0.73;;;0.43;;
70335;SDS011;57756;47.408;18.940;2023-07-16T03:11:02;0.73;;;0.43;;
70335;SDS011;57756;47.408;18.940;2023-07-16T03:13:28;1.08;;;0.40;;
70335;SDS011;57756;47.408;18.940;2023-07-16T03:15:53;0.43;;;0.17;;
70335;SDS011;57756;47.408;18.940;2023-07-16T03:18:19;0.53;;;0.30;;
70335;SDS011;57756;47.408;18.940;2023-07-16T03:20:44;1.30;;;0.90;;
70335;SDS011;57756;47.408;18.940;2023-07-16T03:23:10;1.10;;;0.70;;
70335;SDS011;57756;47.408;18.940;2023-07-16T03:25:36;1.30;;;1.13;;
70335;SDS011;57756;47.408;18.940;2023-07-16T03:28:01;0.70;;;0.40;;
70335;SDS011;57756;47.408;18.940;2023-07-16T03:30:27;0.68;;;0.30;;
70335;SDS011;57756;47.408;18.940;2023-07-16T03:32:52;0.77;;;0.53;;
70335;SDS011;57756;47.408;18.940;2023-07-16T03:35:18;1.43;;;1.13;;
70335;SDS011;57756;47.408;18.940;2023-07-16T03:37:44;1.00;;;0.75;;
70335;SDS011;57756;47.408;18.940;2023-07-16T03:40:13;0.63;;;0.37;;
70335;SDS011;57756;47.408;18.940;2023-07-16T03:42:39;1.20;;;0.65;;
70335;SDS011;57756;47.408;18.940;2023-07-16T03:45:06;0.90;;;0.30;;
70335;SDS011;57756;47.408;18.940;2023-07-16T03:47:32;0.77;;;0.32;;
70335;SDS011;57756;47.408;18.940;2023-07-16T03:49:57;1.07;;;0.57;;
70335;SDS011;57756;47.408;18.940;2023-07-16T03:52:22;0.60;;;0.30;;
70335;SDS011;57756;47.408;18.940;2023-07-16T03:54:49;0.60;;;0.30;;
70335;SDS011;57756;47.408;18.940;2023-07-16T03:57:15;3.10;;;1.60;;
70335;SDS011;57756;47.408;18.940;2023-07-16T03:59:41;1.13;;;0.83;;
70335;SDS011;57756;47.408;18.940;2023-07-16T04:02:07;0.80;;;0.43;;
70335;SDS011;57756;47.408;18.940;2023-07-16T04:04:33;0.93;;;0.55;;
70335;SDS011;57756;47.408;18.940;2023-07-16T04:06:59;1.70;;;0.50;;
70335;SDS011;57756;47.408;18.940;2023-07-16T04:09:24;1.50;;;1.20;;
70335;SDS011;57756;47.408;18.940;2023-07-16T04:11:50;0.70;;;0.28;;
70335;SDS011;57756;47.408;18.940;2023-07-16T04:14:15;1.83;;;0.60;;
70335;SDS011;57756;47.408;18.940;2023-07-16T04:16:41;1.30;;;1.07;;
70335;SDS011;57756;47.408;18.940;2023-07-16T04:19:08;0.90;;;0.70;;
70335;SDS011;57756;47.408;18.940;2023-07-16T04:21:34;1.25;;;0.60;;
70335;SDS011;57756;47.408;18.940;2023-07-16T04:23:59;1.47;;;0.30;;
70335;SDS011;57756;47.408;18.940;2023-07-16T04:26:25;0.73;;;0.40;;
70335;SDS011;57756;47.408;18.940;2023-07-16T04:28:50;1.02;;;0.68;;
70335;SDS011;57756;47.408;18.940;2023-07-16T04:31:16;0.60;;;0.30;;
70335;SDS011;57756;47.408;18.940;2023-07-16T04:33:41;1.10;;;0.60;;
70335;SDS011;57756;47.408;18.940;2023-07-16T04:36:07;1.00;;;0.57;;
70335;SDS011;57756;47.408;18.940;2023-07-16T04:38:32;1.70;;;0.97;;
70335;SDS011;57756;47.408;18.940;2023-07-16T04:40:58;1.13;;;1.00;;
70335;SDS011;57756;47.408;18.940;2023-07-16T04:43:23;0.90;;;0.60;;
70335;SDS011;57756;47.408;18.940;2023-07-16T04:45:48;0.80;;;0.40;;
70335;SDS011;57756;47.408;18.940;2023-07-16T04:48:14;1.13;;;0.70;;
70335;SDS011;57756;47.408;18.940;2023-07-16T04:50:39;1.60;;;0.57;;
70335;SDS011;57756;47.408;18.940;2023-07-16T04:53:05;0.77;;;0.47;;
70335;SDS011;57756;47.408;18.940;2023-07-16T04:55:37;2.13;;;1.37;;
70335;SDS011;57756;47.408;18.940;2023-07-16T04:58:03;1.02;;;0.65;;
70335;SDS011;57756;47.408;18.940;2023-07-16T05:00:29;0.90;;;0.52;;
70335;SDS011;57756;47.408;18.940;2023-07-16T05:02:56;1.13;;;0.67;;
70335;SDS011;57756;47.408;18.940;2023-07-16T05:05:21;1.13;;;0.75;;
70335;SDS011;57756;47.408;18.940;2023-07-16T05:07:46;0.73;;;0.30;;
70335;SDS011;57756;47.408;18.940;2023-07-16T05:10:12;0.87;;;0.37;;
70335;SDS011;57756;47.408;18.940;2023-07-16T05:12:38;0.90;;;0.55;;
70335;SDS011;57756;47.408;18.940;2023-07-16T05:15:03;1.17;;;0.43;;
70335;SDS011;57756;47.408;18.940;2023-07-16T05:17:29;1.05;;;0.80;;
70335;SDS011;57756;47.408;18.940;2023-07-16T05:19:54;0.93;;;0.57;;
70335;SDS011;57756;47.408;18.940;2023-07-16T05:22:20;0.60;;;0.20;;
70335;SDS011;57756;47.408;18.940;2023-07-16T05:24:45;1.88;;;0.73;;
70335;SDS011;57756;47.408;18.940;2023-07-16T05:27:11;2.30;;;0.90;;
70335;SDS011;57756;47.408;18.940;2023-07-16T05:29:36;1.20;;;0.83;;
70335;SDS011;57756;47.408;18.940;2023-07-16T05:32:02;1.30;;;0.70;;
70335;SDS011;57756;47.408;18.940;2023-07-16T05:34:28;0.70;;;0.40;;
70335;SDS011;57756;47.408;18.940;2023-07-16T05:36:54;0.90;;;0.50;;
70335;SDS011;57756;47.408;18.940;2023-07-16T05:39:20;1.20;;;0.87;;
70335;SDS011;57756;47.408;18.940;2023-07-16T05:41:46;1.45;;;0.68;;
70335;SDS011;57756;47.408;18.940;2023-07-16T05:44:12;1.50;;;0.80;;
70335;SDS011;57756;47.408;18.940;2023-07-16T05:46:37;0.90;;;0.50;;
70335;SDS011;57756;47.408;18.940;2023-07-16T05:49:03;0.90;;;0.43;;
70335;SDS011;57756;47.408;18.940;2023-07-16T05:51:28;1.93;;;0.70;;
70335;SDS011;57756;47.408;18.940;2023-07-16T05:53:54;1.35;;;0.85;;
70335;SDS011;57756;47.408;18.940;2023-07-16T05:56:19;5.23;;;1.20;;
70335;SDS011;57756;47.408;18.940;2023-07-16T05:58:45;1.00;;;0.57;;
70335;SDS011;57756;47.408;18.940;2023-07-16T06:01:11;1.90;;;1.60;;
70335;SDS011;57756;47.408;18.940;2023-07-16T06:03:36;1.23;;;0.90;;
70335;SDS011;57756;47.408;18.940;2023-07-16T06:06:02;1.33;;;0.90;;
70335;SDS011;57756;47.408;18.940;2023-07-16T06:08:27;1.03;;;0.67;;
70335;SDS011;57756;47.408;18.940;2023-07-16T06:10:53;0.90;;;0.50;;
70335;SDS011;57756;47.408;18.940;2023-07-16T06:13:19;1.20;;;0.80;;
70335;SDS011;57756;47.408;18.940;2023-07-16T06:15:45;1.30;;;1.00;;
70335;SDS011;57756;47.408;18.940;2023-07-16T06:18:12;1.90;;;1.40;;
70335;SDS011;57756;47.408;18.940;2023-07-16T06:20:37;1.00;;;0.70;;
70335;SDS011;57756;47.408;18.940;2023-07-16T06:23:03;2.20;;;1.33;;
70335;SDS011;57756;47.408;18.940;2023-07-16T06:25:29;1.48;;;0.90;;
70335;SDS011;57756;47.408;18.940;2023-07-16T06:27:54;1.27;;;0.87;;
70335;SDS011;57756;47.408;18.940;2023-07-16T06:30:20;1.27;;;0.80;;
70335;SDS011;57756;47.408;18.940;2023-07-16T06:32:45;2.45;;;1.33;;
70335;SDS011;57756;47.408;18.940;2023-07-16T06:35:11;1.30;;;1.10;;
70335;SDS011;57756;47.408;18.940;2023-07-16T06:37:36;1.88;;;1.38;;
70335;SDS011;57756;47.408;18.940;2023-07-16T06:40:02;1.43;;;0.93;;
70335;SDS011;57756;47.408;18.940;2023-07-16T06:42:28;3.35;;;1.20;;
70335;SDS011;57756;47.408;18.940;2023-07-16T06:44:54;1.53;;;1.07;;
70335;SDS011;57756;47.408;18.940;2023-07-16T06:47:19;1.97;;;1.23;;
70335;SDS011;57756;47.408;18.940;2023-07-16T06:49:45;1.60;;;1.10;;
70335;SDS011;57756;47.408;18.940;2023-07-16T06:52:20;3.27;;;1.17;;
70335;SDS011;57756;47.408;18.940;2023-07-16T06:54:55;1.90;;;1.02;;
70335;SDS011;57756;47.408;18.940;2023-07-16T06:57:22;1.33;;;1.02;;
70335;SDS011;57756;47.408;18.940;2023-07-16T06:59:48;1.47;;;1.10;;
70335;SDS011;57756;47.408;18.940;2023-07-16T07:02:13;1.77;;;1.38;;
70335;SDS011;57756;47.408;18.940;2023-07-16T07:04:39;2.17;;;1.57;;
70335;SDS011;57756;47.408;18.940;2023-07-16T07:07:04;1.60;;;1.10;;
70335;SDS011;57756;47.408;18.940;2023-07-16T07:09:30;1.70;;;1.30;;
70335;SDS011;57756;47.408;18.940;2023-07-16T07:11:56;1.38;;;0.82;;
70335;SDS011;57756;47.408;18.940;2023-07-16T07:14:21;1.43;;;0.80;;
70335;SDS011;57756;47.408;18.940;2023-07-16T07:16:47;1.83;;;1.13;;
70335;SDS011;57756;47.408;18.940;2023-07-16T07:19:12;2.13;;;1.40;;
70335;SDS011;57756;47.408;18.940;2023-07-16T07:21:38;1.37;;;0.97;;
70335;SDS011;57756;47.408;18.940;2023-07-16T07:24:03;2.93;;;1.27;;
70335;SDS011;57756;47.408;18.940;2023-07-16T07:26:29;1.92;;;1.13;;
70335;SDS011;57756;47.408;18.940;2023-07-16T07:28:54;1.33;;;0.90;;
70335;SDS011;57756;47.408;18.940;2023-07-16T07:31:20;1.47;;;0.90;;
70335;SDS011;57756;47.408;18.940;2023-07-16T07:33:45;2.63;;;1.40;;
70335;SDS011;57756;47.408;18.940;2023-07-16T07:36:11;1.43;;;1.03;;
70335;SDS011;57756;47.408;18.940;2023-07-16T07:38:36;1.50;;;1.00;;
70335;SDS011;57756;47.408;18.940;2023-07-16T07:41:02;2.58;;;1.75;;
70335;SDS011;57756;47.408;18.940;2023-07-16T07:43:30;1.70;;;1.20;;
70335;SDS011;57756;47.408;18.940;2023-07-16T07:45:55;1.52;;;1.13;;
70335;SDS011;57756;47.408;18.940;2023-07-16T07:48:20;1.80;;;1.20;;
70335;SDS011;57756;47.408;18.940;2023-07-16T07:50:46;1.30;;;1.20;;
70335;SDS011;57756;47.408;18.940;2023-07-16T07:53:12;2.00;;;1.50;;
70335;SDS011;57756;47.408;18.940;2023-07-16T07:55:39;1.52;;;1.10;;
70335;SDS011;57756;47.408;18.940;2023-07-16T07:58:05;2.13;;;1.30;;
70335;SDS011;57756;47.408;18.940;2023-07-16T08:00:30;1.38;;;1.00;;
70335;SDS011;57756;47.408;18.940;2023-07-16T08:02:56;1.90;;;1.17;;
70335;SDS011;57756;47.408;18.940;2023-07-16T08:05:21;1.87;;;1.50;;
70335;SDS011;57756;47.408;18.940;2023-07-16T08:07:47;2.22;;;1.38;;
70335;SDS011;57756;47.408;18.940;2023-07-16T08:10:12;2.00;;;1.30;;
70335;SDS011;57756;47.408;18.940;2023-07-16T08:12:38;1.63;;;1.13;;
70335;SDS011;57756;47.408;18.940;2023-07-16T08:15:03;1.80;;;1.25;;
70335;SDS011;57756;47.408;18.940;2023-07-16T08:17:29;1.70;;;1.17;;
70335;SDS011;57756;47.408;18.940;2023-07-16T08:19:54;1.80;;;1.15;;
70335;SDS011;57756;47.408;18.940;2023-07-16T08:22:20;2.17;;;1.50;;
70335;SDS011;57756;47.408;18.940;2023-07-16T08:24:46;1.98;;;1.55;;
70335;SDS011;57756;47.408;18.940;2023-07-16T08:27:12;1.93;;;1.40;;
70335;SDS011;57756;47.408;18.940;2023-07-16T08:29:37;1.40;;;0.93;;
70335;SDS011;57756;47.408;18.940;2023-07-16T08:32:03;1.80;;;1.15;;
70335;SDS011;57756;47.408;18.940;2023-07-16T08:34:29;3.17;;;1.50;;
70335;SDS011;57756;47.408;18.940;2023-07-16T08:36:54;1.53;;;1.20;;
70335;SDS011;57756;47.408;18.940;2023-07-16T08:39:20;1.80;;;0.93;;
70335;SDS011;57756;47.408;18.940;2023-07-16T08:41:46;2.40;;;1.58;;
70335;SDS011;57756;47.408;18.940;2023-07-16T08:44:11;2.40;;;1.20;;
70335;SDS011;57756;47.408;18.940;2023-07-16T08:46:37;1.88;;;1.60;;
70335;SDS011;57756;47.408;18.940;2023-07-16T08:49:04;1.25;;;0.85;;
70335;SDS011;57756;47.408;18.940;2023-07-16T08:51:31;2.90;;;1.60;;
70335;SDS011;57756;47.408;18.940;2023-07-16T08:53:57;2.58;;;1.63;;
70335;SDS011;57756;47.408;18.940;2023-07-16T08:56:22;1.50;;;1.08;;
70335;SDS011;57756;47.408;18.940;2023-07-16T08:58:48;1.57;;;1.20;;
70335;SDS011;57756;47.408;18.940;2023-07-16T09:01:14;2.00;;;1.40;;
70335;SDS011;57756;47.408;18.940;2023-07-16T09:03:42;3.40;;;1.87;;
70335;SDS011;57756;47.408;18.940;2023-07-16T09:06:07;2.38;;;1.85;;
70335;SDS011;57756;47.408;18.940;2023-07-16T09:08:33;2.17;;;1.50;;
70335;SDS011;57756;47.408;18.940;2023-07-16T09:10:58;2.40;;;2.00;;
70335;SDS011;57756;47.408;18.940;2023-07-16T09:13:24;2.15;;;1.48;;
70335;SDS011;57756;47.408;18.940;2023-07-16T09:15:53;1.83;;;1.20;;
70335;SDS011;57756;47.408;18.940;2023-07-16T09:18:23;1.93;;;1.50;;
70335;SDS011;57756;47.408;18.940;2023-07-16T09:20:59;1.90;;;1.58;;
70335;SDS011;57756;47.408;18.940;2023-07-16T09:23:29;2.20;;;1.70;;
70335;SDS011;57756;47.408;18.940;2023-07-16T09:25:56;2.38;;;1.40;;
70335;SDS011;57756;47.408;18.940;2023-07-16T09:28:22;2.42;;;1.40;;
70335;SDS011;57756;47.408;18.940;2023-07-16T09:30:48;2.07;;;1.87;;
70335;SDS011;57756;47.408;18.940;2023-07-16T09:33:15;2.47;;;1.77;;
70335;SDS011;57756;47.408;18.940;2023-07-16T09:35:43;3.00;;;1.88;;
70335;SDS011;57756;47.408;18.940;2023-07-16T09:38:09;1.70;;;1.30;;
70335;SDS011;57756;47.408;18.940;2023-07-16T09:40:38;1.80;;;1.40;;
70335;SDS011;57756;47.408;18.940;2023-07-16T09:43:07;2.28;;;1.80;;
70335;SDS011;57756;47.408;18.940;2023-07-16T09:45:33;2.17;;;1.30;;
70335;SDS011;57756;47.408;18.940;2023-07-16T09:47:59;2.65;;;1.73;;
70335;SDS011;57756;47.408;18.940;2023-07-16T09:50:27;2.00;;;1.43;;
70335;SDS011;57756;47.408;18.940;2023-07-16T09:52:57;2.65;;;1.73;;
70335;SDS011;57756;47.408;18.940;2023-07-16T09:55:23;2.28;;;1.85;;
70335;SDS011;57756;47.408;18.940;2023-07-16T09:57:50;2.70;;;1.85;;
70335;SDS011;57756;47.408;18.940;2023-07-16T10:00:18;2.90;;;1.87;;
70335;SDS011;57756;47.408;18.940;2023-07-16T10:02:45;3.22;;;1.85;;
70335;SDS011;57756;47.408;18.940;2023-07-16T10:05:18;2.00;;;1.60;;
70335;SDS011;57756;47.408;18.940;2023-07-16T10:10:20;2.23;;;1.50;;
70335;SDS011;57756;47.408;18.940;2023-07-16T10:13:00;2.30;;;1.67;;
70335;SDS011;57756;47.408;18.940;2023-07-16T10:15:27;1.85;;;1.27;;
70335;SDS011;57756;47.408;18.940;2023-07-16T10:17:54;2.13;;;1.83;;
70335;SDS011;57756;47.408;18.940;2023-07-16T10:22:56;2.03;;;1.53;;
70335;SDS011;57756;47.408;18.940;2023-07-16T10:25:23;1.77;;;1.38;;
70335;SDS011;57756;47.408;18.940;2023-07-16T10:27:50;2.33;;;1.60;;
70335;SDS011;57756;47.408;18.940;2023-07-16T10:30:17;2.63;;;1.63;;
70335;SDS011;57756;47.408;18.940;2023-07-16T10:32:43;3.00;;;1.70;;
70335;SDS011;57756;47.408;18.940;2023-07-16T10:35:09;2.67;;;1.67;;
70335;SDS011;57756;47.408;18.940;2023-07-16T10:37:36;2.38;;;1.50;;
70335;SDS011;57756;47.408;18.940;2023-07-16T10:40:02;1.80;;;1.30;;
70335;SDS011;57756;47.408;18.940;2023-07-16T10:42:29;1.95;;;1.50;;
70335;SDS011;57756;47.408;18.940;2023-07-16T10:44:58;1.80;;;1.50;;
70335;SDS011;57756;47.408;18.940;2023-07-16T10:47:31;1.67;;;1.15;;
70335;SDS011;57756;47.408;18.940;2023-07-16T10:49:58;2.05;;;1.08;;
70335;SDS011;57756;47.408;18.940;2023-07-16T10:52:24;3.30;;;1.80;;
70335;SDS011;57756;47.408;18.940;2023-07-16T10:54:51;2.00;;;1.27;;
70335;SDS011;57756;47.408;18.940;2023-07-16T10:57:20;1.77;;;1.05;;
70335;SDS011;57756;47.408;18.940;2023-07-16T10:59:46;3.08;;;1.60;;
70335;SDS011;57756;47.408;18.940;2023-07-16T11:02:14;3.22;;;1.48;;
70335;SDS011;57756;47.408;18.940;2023-07-16T11:04:42;1.70;;;1.20;;
70335;SDS011;57756;47.408;18.940;2023-07-16T11:07:10;3.63;;;1.60;;
70335;SDS011;57756;47.408;18.940;2023-07-16T11:09:50;2.75;;;1.65;;
70335;SDS011;57756;47.408;18.940;2023-07-16T11:12:17;1.88;;;1.23;;
70335;SDS011;57756;47.408;18.940;2023-07-16T11:14:45;1.60;;;1.20;;
70335;SDS011;57756;47.408;18.940;2023-07-16T11:17:13;1.97;;;1.30;;
70335;SDS011;57756;47.408;18.940;2023-07-16T11:19:39;1.75;;;1.38;;
70335;SDS011;57756;47.408;18.940;2023-07-16T11:22:06;2.25;;;1.40;;
70335;SDS011;57756;47.408;18.940;2023-07-16T11:24:36;2.33;;;1.50;;
70335;SDS011;57756;47.408;18.940;2023-07-16T11:27:12;1.83;;;1.42;;
70335;SDS011;57756;47.408;18.940;2023-07-16T11:29:39;3.10;;;1.57;;
70335;SDS011;57756;47.408;18.940;2023-07-16T11:32:07;2.15;;;1.38;;
70335;SDS011;57756;47.408;18.940;2023-07-16T11:34:33;1.55;;;1.27;;
70335;SDS011;57756;47.408;18.940;2023-07-16T11:37:08;1.70;;;1.40;;
70335;SDS011;57756;47.408;18.940;2023-07-16T11:39:35;3.17;;;1.67;;
70335;SDS011;57756;47.408;18.940;2023-07-16T11:42:01;2.50;;;1.20;;
70335;SDS011;57756;47.408;18.940;2023-07-16T11:44:31;2.88;;;2.28;;
70335;SDS011;57756;47.408;18.940;2023-07-16T11:46:58;2.58;;;2.17;;
70335;SDS011;57756;47.408;18.940;2023-07-16T11:49:24;1.60;;;1.20;;
70335;SDS011;57756;47.408;18.940;2023-07-16T11:51:49;2.20;;;1.40;;
70335;SDS011;57756;47.408;18.940;2023-07-16T11:54:15;2.63;;;1.47;;
70335;SDS011;57756;47.408;18.940;2023-07-16T11:56:40;3.33;;;1.30;;
70335;SDS011;57756;47.408;18.940;2023-07-16T11:59:06;2.43;;;1.63;;
70335;SDS011;57756;47.408;18.940;2023-07-16T12:01:31;2.40;;;1.30;;
70335;SDS011;57756;47.408;18.940;2023-07-16T12:03:57;2.08;;;1.67;;
70335;SDS011;57756;47.408;18.940;2023-07-16T12:06:22;2.03;;;1.67;;
70335;SDS011;57756;47.408;18.940;2023-07-16T12:08:48;1.93;;;1.57;;
70335;SDS011;57756;47.408;18.940;2023-07-16T12:11:14;1.57;;;1.10;;
70335;SDS011;57756;47.408;18.940;2023-07-16T12:13:39;1.83;;;1.60;;
70335;SDS011;57756;47.408;18.940;2023-07-16T12:16:05;1.88;;;1.25;;
70335;SDS011;57756;47.408;18.940;2023-07-16T12:18:30;2.10;;;1.80;;
70335;SDS011;57756;47.408;18.940;2023-07-16T12:20:56;2.95;;;1.35;;
70335;SDS011;57756;47.408;18.940;2023-07-16T12:23:22;2.03;;;1.40;;
70335;SDS011;57756;47.408;18.940;2023-07-16T12:25:48;2.10;;;1.30;;
70335;SDS011;57756;47.408;18.940;2023-07-16T12:28:14;2.05;;;1.63;;
70335;SDS011;57756;47.408;18.940;2023-07-16T12:30:40;2.07;;;1.27;;
70335;SDS011;57756;47.408;18.940;2023-07-16T12:33:05;2.00;;;1.27;;
70335;SDS011;57756;47.408;18.940;2023-07-16T12:35:31;1.83;;;1.40;;
70335;SDS011;57756;47.408;18.940;2023-07-16T12:37:57;3.03;;;1.63;;
70335;SDS011;57756;47.408;18.940;2023-07-16T12:40:23;1.92;;;1.58;;
70335;SDS011;57756;47.408;18.940;2023-07-16T12:42:54;2.38;;;1.50;;
70335;SDS011;57756;47.408;18.940;2023-07-16T12:45:20;2.10;;;1.60;;
70335;SDS011;57756;47.408;18.940;2023-07-16T12:47:45;1.48;;;0.95;;
70335;SDS011;57756;47.408;18.940;2023-07-16T12:50:10;2.63;;;1.63;;
70335;SDS011;57756;47.408;18.940;2023-07-16T12:52:36;2.77;;;2.07;;
70335;SDS011;57756;47.408;18.940;2023-07-16T12:55:02;1.75;;;1.42;;
70335;SDS011;57756;47.408;18.940;2023-07-16T12:57:27;2.27;;;1.47;;
70335;SDS011;57756;47.408;18.940;2023-07-16T12:59:53;2.40;;;1.77;;
70335;SDS011;57756;47.408;18.940;2023-07-16T13:02:18;2.50;;;1.70;;
70335;SDS011;57756;47.408;18.940;2023-07-16T13:04:44;2.70;;;1.60;;
70335;SDS011;57756;47.408;18.940;2023-07-16T13:07:10;2.45;;;1.92;;
70335;SDS011;57756;47.408;18.940;2023-07-16T13:09:35;2.17;;;1.73;;
70335;SDS011;57756;47.408;18.940;2023-07-16T13:12:01;2.63;;;1.57;;
70335;SDS011;57756;47.408;18.940;2023-07-16T13:14:26;2.03;;;1.63;;
70335;SDS011;57756;47.408;18.940;2023-07-16T13:16:52;3.23;;;1.70;;
70335;SDS011;57756;47.408;18.940;2023-07-16T13:19:17;3.35;;;1.73;;
70335;SDS011;57756;47.408;18.940;2023-07-16T13:21:43;2.60;;;1.80;;
70335;SDS011;57756;47.408;18.940;2023-07-16T13:24:08;2.00;;;1.67;;
70335;SDS011;57756;47.408;18.940;2023-07-16T13:26:34;4.13;;;1.60;;
70335;SDS011;57756;47.408;18.940;2023-07-16T13:28:59;2.55;;;1.77;;
70335;SDS011;57756;47.408;18.940;2023-07-16T13:31:25;2.50;;;1.93;;
70335;SDS011;57756;47.408;18.940;2023-07-16T13:33:50;6.50;;;1.63;;
70335;SDS011;57756;47.408;18.940;2023-07-16T13:36:16;2.05;;;1.80;;
70335;SDS011;57756;47.408;18.940;2023-07-16T13:38:41;2.03;;;1.47;;
70335;SDS011;57756;47.408;18.940;2023-07-16T13:41:07;2.00;;;1.63;;
70335;SDS011;57756;47.408;18.940;2023-07-16T13:43:32;2.05;;;1.70;;
70335;SDS011;57756;47.408;18.940;2023-07-16T13:45:58;2.27;;;1.63;;
70335;SDS011;57756;47.408;18.940;2023-07-16T13:48:23;2.67;;;1.70;;
70335;SDS011;57756;47.408;18.940;2023-07-16T13:50:49;2.15;;;1.70;;
70335;SDS011;57756;47.408;18.940;2023-07-16T13:53:14;2.30;;;1.33;;
70335;SDS011;57756;47.408;18.940;2023-07-16T13:55:40;2.00;;;1.50;;
70335;SDS011;57756;47.408;18.940;2023-07-16T13:58:05;1.70;;;1.30;;
70335;SDS011;57756;47.408;18.940;2023-07-16T14:00:31;1.97;;;1.47;;
70335;SDS011;57756;47.408;18.940;2023-07-16T14:02:56;1.92;;;1.45;;
70335;SDS011;57756;47.408;18.940;2023-07-16T14:05:22;6.07;;;1.17;;
70335;SDS011;57756;47.408;18.940;2023-07-16T14:07:47;2.10;;;1.70;;
70335;SDS011;57756;47.408;18.940;2023-07-16T14:10:14;2.58;;;1.98;;
70335;SDS011;57756;47.408;18.940;2023-07-16T14:12:40;2.27;;;1.70;;
70335;SDS011;57756;47.408;18.940;2023-07-16T14:15:05;3.03;;;1.70;;
70335;SDS011;57756;47.408;18.940;2023-07-16T14:17:31;2.95;;;1.48;;
70335;SDS011;57756;47.408;18.940;2023-07-16T14:19:56;2.10;;;1.37;;
70335;SDS011;57756;47.408;18.940;2023-07-16T14:22:22;2.67;;;1.60;;
70335;SDS011;57756;47.408;18.940;2023-07-16T14:24:51;1.73;;;1.20;;
70335;SDS011;57756;47.408;18.940;2023-07-16T14:27:17;2.67;;;2.00;;
70335;SDS011;57756;47.408;18.940;2023-07-16T14:29:45;1.85;;;1.20;;
70335;SDS011;57756;47.408;18.940;2023-07-16T14:32:10;2.13;;;1.48;;
70335;SDS011;57756;47.408;18.940;2023-07-16T14:34:36;1.47;;;1.10;;
70335;SDS011;57756;47.408;18.940;2023-07-16T14:37:02;1.88;;;1.13;;
70335;SDS011;57756;47.408;18.940;2023-07-16T14:39:27;1.80;;;1.20;;
70335;SDS011;57756;47.408;18.940;2023-07-16T14:41:53;2.10;;;1.10;;